createdAt,value
2018-05-17T00:02:08.111Z,28.53
2018-05-17T00:04:36.477Z,28.33
2018-05-17T00:07:04.049Z,31.27
2018-05-17T00:09:32.567Z,27.47
2018-05-17T00:12:00.921Z,30.73
2018-05-17T00:14:29.329Z,25.63
2018-05-17T00:16:57.680Z,21.60
2018-05-17T00:19:26.093Z,21.80
2018-05-17T00:21:54.445Z,29.70
2018-05-17T00:24:22.068Z,26.37
2018-05-17T00:26:49.648Z,26.97
2018-05-17T00:29:18.118Z,28.67
2018-05-17T00:31:46.506Z,25.13
2018-05-17T00:34:14.085Z,23.27
2018-05-17T00:36:42.413Z,28.73
2018-05-17T00:39:09.993Z,29.80
2018-05-17T00:41:37.621Z,31.07
2018-05-17T00:44:05.207Z,30.67
2018-05-17T00:46:33.508Z,30.70
2018-05-17T00:49:01.085Z,30.40
2018-05-17T00:51:28.671Z,25.33
2018-05-17T00:53:56.305Z,26.07
2018-05-17T00:56:24.793Z,25.33
2018-05-17T00:58:52.374Z,25.27
2018-05-17T01:01:19.955Z,25.20
2018-05-17T01:03:47.569Z,26.60
2018-05-17T01:06:15.161Z,26.90
2018-05-17T01:08:43.609Z,28.50
2018-05-17T01:11:11.192Z,24.80
2018-05-17T01:13:39.662Z,25.33
2018-05-17T01:16:07.244Z,23.40
2018-05-17T01:18:35.726Z,20.20
2018-05-17T01:21:03.300Z,21.17
2018-05-17T01:23:31.671Z,24.10
2018-05-17T01:25:59.290Z,20.33
2018-05-17T01:28:26.869Z,18.90
2018-05-17T01:30:55.136Z,19.90
2018-05-17T01:33:22.717Z,18.87
2018-05-17T01:35:50.336Z,19.50
2018-05-17T01:38:25.724Z,20.87
2018-05-17T01:40:53.340Z,18.30
2018-05-17T01:43:20.925Z,19.30
2018-05-17T01:45:48.548Z,28.73
2018-05-17T01:48:16.128Z,22.57
2018-05-17T01:50:43.753Z,18.90
2018-05-17T01:53:12.124Z,22.17
2018-05-17T01:55:40.492Z,16.47
2018-05-17T01:58:08.957Z,18.73
2018-05-17T02:00:36.532Z,21.17
2018-05-17T02:03:04.121Z,19.57
2018-05-17T02:05:31.709Z,20.50
2018-05-17T02:07:59.283Z,24.40
2018-05-17T02:10:26.864Z,19.40
2018-05-17T02:12:54.442Z,17.80
2018-05-17T02:15:22.024Z,21.70
2018-05-17T02:17:49.656Z,21.57
2018-05-17T02:20:17.229Z,22.73
2018-05-17T02:22:44.815Z,17.80
2018-05-17T02:25:13.407Z,23.40
2018-05-17T02:27:40.984Z,23.10
2018-05-17T02:30:08.565Z,16.87
2018-05-17T02:32:36.161Z,18.50
2018-05-17T02:35:03.747Z,22.63
2018-05-17T02:37:31.334Z,21.60
2018-05-17T02:39:58.917Z,20.10
2018-05-17T02:42:26.497Z,17.33
2018-05-17T02:44:54.076Z,15.93
2018-05-17T02:47:22.361Z,18.87
2018-05-17T02:49:49.980Z,19.13
2018-05-17T02:52:17.559Z,18.97
2018-05-17T02:54:45.148Z,18.30
2018-05-17T02:57:12.742Z,17.60
2018-05-17T02:59:40.326Z,18.17
2018-05-17T03:02:07.949Z,20.20
2018-05-17T03:04:35.525Z,24.60
2018-05-17T03:07:03.112Z,14.67
2018-05-17T03:09:30.685Z,25.77
2018-05-17T03:11:59.037Z,27.87
2018-05-17T03:14:26.653Z,16.10
2018-05-17T03:16:54.369Z,15.90
2018-05-17T03:19:22.908Z,19.60
2018-05-17T03:21:51.438Z,21.05
2018-05-17T03:24:19.023Z,19.03
2018-05-17T03:26:46.608Z,18.90
2018-05-17T03:29:14.969Z,18.97
2018-05-17T03:31:43.329Z,20.73
2018-05-17T03:34:11.696Z,20.60
2018-05-17T03:36:40.176Z,19.47
2018-05-17T03:39:07.761Z,17.90
2018-05-17T03:41:35.421Z,18.90
2018-05-17T03:44:03.813Z,19.40
2018-05-17T03:46:32.226Z,21.13
2018-05-17T03:48:59.768Z,18.57
2018-05-17T03:51:28.045Z,19.50
2018-05-17T03:53:55.694Z,22.33
2018-05-17T03:56:23.237Z,24.40
2018-05-17T03:58:51.721Z,24.07
2018-05-17T04:01:30.922Z,23.03
2018-05-17T04:04:10.369Z,22.40
2018-05-17T04:06:42.505Z,20.63
2018-05-17T04:09:10.788Z,21.37
2018-05-17T04:11:38.369Z,24.00
2018-05-17T04:14:06.777Z,19.90
2018-05-17T04:16:35.194Z,21.77
2018-05-17T04:19:03.731Z,23.13
2018-05-17T04:21:32.257Z,32.73
2018-05-17T04:23:59.876Z,26.63
2018-05-17T04:26:28.145Z,22.90
2018-05-17T04:28:55.766Z,19.57
2018-05-17T04:31:23.352Z,19.70
2018-05-17T04:33:51.847Z,20.73
2018-05-17T04:36:19.429Z,18.57
2018-05-17T04:38:47.953Z,21.30
2018-05-17T04:41:15.539Z,20.57
2018-05-17T04:43:43.812Z,20.03
2018-05-17T04:46:11.398Z,21.97
2018-05-17T04:48:38.977Z,27.80
2018-05-17T04:51:06.552Z,23.57
2018-05-17T04:53:34.132Z,21.00
2018-05-17T04:56:01.710Z,30.23
2018-05-17T04:58:29.292Z,26.63
2018-05-17T05:00:56.881Z,23.27
2018-05-17T05:03:24.467Z,25.47
2018-05-17T05:05:52.045Z,28.40
2018-05-17T05:08:19.626Z,28.27
2018-05-17T05:10:47.208Z,25.23
2018-05-17T05:13:14.829Z,23.80
2018-05-17T05:15:42.409Z,27.93
2018-05-17T05:18:10.172Z,25.23
2018-05-17T05:20:37.756Z,22.50
2018-05-17T05:23:05.332Z,22.87
2018-05-17T05:25:32.953Z,22.20
2018-05-17T05:28:00.591Z,24.40
2018-05-17T05:30:29.007Z,23.80
2018-05-17T05:32:56.594Z,28.33
2018-05-17T05:35:24.172Z,25.90
2018-05-17T05:37:52.653Z,25.07
2018-05-17T05:40:20.933Z,25.03
2018-05-17T05:45:21.369Z,29.43
2018-05-17T05:47:49.778Z,25.67
2018-05-17T05:50:17.388Z,24.43
2018-05-17T05:52:45.005Z,25.80
2018-05-17T05:55:12.584Z,25.53
2018-05-17T05:57:41.097Z,21.13
2018-05-17T06:00:08.720Z,23.17
2018-05-17T06:02:37.013Z,27.10
2018-05-17T06:05:04.633Z,25.50
2018-05-17T06:07:32.212Z,24.70
2018-05-17T06:09:59.788Z,21.57
2018-05-17T06:12:27.368Z,27.43
2018-05-17T06:14:55.099Z,23.20
2018-05-17T06:17:22.726Z,22.40
2018-05-17T06:19:50.364Z,21.67
2018-05-17T06:22:17.937Z,21.40
2018-05-17T06:24:46.428Z,28.53
2018-05-17T06:27:14.049Z,25.73
2018-05-17T06:29:41.625Z,20.63
2018-05-17T06:32:09.976Z,25.33
2018-05-17T06:34:38.450Z,20.83
2018-05-17T06:37:06.837Z,21.10
2018-05-17T06:39:35.145Z,18.27
2018-05-17T06:42:02.732Z,22.60
2018-05-17T06:44:31.124Z,16.63
2018-05-17T06:46:59.589Z,18.20
2018-05-17T06:49:27.212Z,22.63
2018-05-17T06:51:55.666Z,15.77
2018-05-17T06:54:23.992Z,18.73
2018-05-17T06:56:52.276Z,18.40
2018-05-17T06:59:20.640Z,17.33
2018-05-17T07:01:49.037Z,18.40
2018-05-17T07:04:16.769Z,17.03
2018-05-17T07:06:45.149Z,16.67
2018-05-17T07:09:13.565Z,17.90
2018-05-17T07:11:41.227Z,16.83
2018-05-17T07:14:09.734Z,21.00
2018-05-17T07:16:38.091Z,16.67
2018-05-17T07:19:05.762Z,18.27
2018-05-17T07:21:34.183Z,13.70
2018-05-17T07:24:02.556Z,17.97
2018-05-17T07:26:30.961Z,16.23
2018-05-17T07:28:59.351Z,13.20
2018-05-17T07:31:27.798Z,10.90
2018-05-17T07:33:56.264Z,17.13
2018-05-17T07:36:23.877Z,12.07
2018-05-17T07:38:52.313Z,10.80
2018-05-17T07:41:20.861Z,12.37
2018-05-17T07:43:48.478Z,17.27
2018-05-17T07:46:16.899Z,11.93
2018-05-17T07:48:45.169Z,12.87
2018-05-17T07:51:13.593Z,12.10
2018-05-17T07:53:41.226Z,13.30
2018-05-17T07:56:09.572Z,12.10
2018-05-17T07:58:37.149Z,13.07
2018-05-17T08:01:05.653Z,17.83
2018-05-17T08:03:33.320Z,15.10
2018-05-17T08:06:00.889Z,12.40
2018-05-17T08:08:28.465Z,13.30
2018-05-17T08:10:56.045Z,12.57
2018-05-17T08:13:23.617Z,14.23
2018-05-17T08:15:51.193Z,14.90
2018-05-17T08:18:18.772Z,12.17
2018-05-17T08:20:46.353Z,12.50
2018-05-17T08:23:13.936Z,16.63
2018-05-17T08:25:41.565Z,15.70
2018-05-17T08:28:09.140Z,16.40
2018-05-17T08:30:36.785Z,11.10
2018-05-17T08:33:04.365Z,12.00
2018-05-17T08:35:31.941Z,13.03
2018-05-17T08:37:59.518Z,14.33
2018-05-17T08:40:27.186Z,10.47
2018-05-17T08:42:54.802Z,15.33
2018-05-17T08:45:22.382Z,14.00
2018-05-17T08:47:50.013Z,10.80
2018-05-17T08:50:17.589Z,10.63
2018-05-17T08:52:45.201Z,15.43
2018-05-17T08:55:13.570Z,8.90
2018-05-17T08:57:41.192Z,10.90
2018-05-17T09:00:08.770Z,17.37
2018-05-17T09:02:36.341Z,8.73
2018-05-17T09:05:04.785Z,9.33
2018-05-17T09:07:32.370Z,10.60
2018-05-17T09:10:00.808Z,15.47
2018-05-17T09:12:28.375Z,9.50
2018-05-17T09:14:56.901Z,9.00
2018-05-17T09:17:24.537Z,8.80
2018-05-17T09:19:52.157Z,14.33
2018-05-17T09:22:19.757Z,11.03
2018-05-17T09:24:47.380Z,11.17
2018-05-17T09:27:15.784Z,15.20
2018-05-17T09:29:43.364Z,29.00
2018-05-17T09:32:11.797Z,10.73
2018-05-17T09:34:39.369Z,9.83
2018-05-17T09:37:07.856Z,10.97
2018-05-17T09:39:35.433Z,7.10
2018-05-17T09:42:03.905Z,9.70
2018-05-17T09:44:31.478Z,9.10
2018-05-17T09:46:59.057Z,10.10
2018-05-17T09:49:26.625Z,9.57
2018-05-17T09:51:56.284Z,9.30
2018-05-17T09:54:24.637Z,8.50
2018-05-17T09:56:52.209Z,8.27
2018-05-17T09:59:19.786Z,12.37
2018-05-17T10:01:48.257Z,10.77
2018-05-17T10:04:15.845Z,8.70
2018-05-17T10:06:43.417Z,10.23
2018-05-17T10:09:10.984Z,17.37
2018-05-17T10:11:39.453Z,19.53
2018-05-17T10:14:07.021Z,15.30
2018-05-17T10:16:34.593Z,12.70
2018-05-17T10:19:02.169Z,15.67
2018-05-17T10:21:29.745Z,16.13
2018-05-17T10:23:57.321Z,11.93
2018-05-17T10:26:24.905Z,20.73
2018-05-17T10:28:52.477Z,24.77
2018-05-17T10:31:20.058Z,24.67
2018-05-17T10:33:47.668Z,16.03
2018-05-17T10:36:17.048Z,20.40
2018-05-17T10:38:45.394Z,16.77
2018-05-17T10:41:13.073Z,18.80
2018-05-17T10:43:40.683Z,19.73
2018-05-17T10:46:09.053Z,31.60
2018-05-17T10:48:36.629Z,24.57
2018-05-17T10:51:04.205Z,22.90
2018-05-17T10:53:31.772Z,26.13
2018-05-17T10:56:00.118Z,19.47
2018-05-17T10:58:27.708Z,18.57
2018-05-17T11:00:55.284Z,17.17
2018-05-17T11:03:22.861Z,21.13
2018-05-17T11:05:50.447Z,18.20
2018-05-17T11:08:18.813Z,24.70
2018-05-17T11:10:46.434Z,17.73
2018-05-17T11:13:14.799Z,14.50
2018-05-17T11:15:42.377Z,23.60
2018-05-17T11:18:09.953Z,17.60
2018-05-17T11:20:37.534Z,16.97
2018-05-17T11:23:05.192Z,11.37
2018-05-17T11:25:32.860Z,24.00
2018-05-17T11:28:00.529Z,18.20
2018-05-17T11:30:28.100Z,22.53
2018-05-17T11:32:55.745Z,23.93
2018-05-17T11:35:23.301Z,23.00
2018-05-17T11:37:51.645Z,15.30
2018-05-17T11:40:19.220Z,21.83
2018-05-17T11:42:46.800Z,19.07
2018-05-17T11:45:20.713Z,18.73
2018-05-17T11:47:48.289Z,19.43
2018-05-17T11:50:15.861Z,20.30
2018-05-17T11:52:44.341Z,21.37
2018-05-17T11:55:11.916Z,19.83
2018-05-17T11:57:39.586Z,21.17
2018-05-17T12:00:07.142Z,24.93
2018-05-17T12:02:34.953Z,20.00
2018-05-17T12:05:02.534Z,25.27
2018-05-17T12:07:30.136Z,18.60
2018-05-17T12:09:57.726Z,20.70
2018-05-17T12:12:25.379Z,17.00
2018-05-17T12:14:52.976Z,18.60
2018-05-17T12:17:20.657Z,15.57
2018-05-17T12:19:48.453Z,24.90
2018-05-17T12:22:15.965Z,20.17
2018-05-17T12:24:43.545Z,17.87
2018-05-17T12:27:11.121Z,22.57
2018-05-17T12:29:38.697Z,22.33
2018-05-17T12:32:06.275Z,16.63
2018-05-17T12:34:33.852Z,18.10
2018-05-17T12:37:01.499Z,18.80
2018-05-17T12:39:29.025Z,22.13
2018-05-17T12:41:56.588Z,23.93
2018-05-17T12:44:24.169Z,23.77
2018-05-17T12:46:52.656Z,23.50
2018-05-17T12:49:20.224Z,17.90
2018-05-17T12:51:48.480Z,16.90
2018-05-17T12:54:16.050Z,18.43
2018-05-17T12:56:43.634Z,25.17
2018-05-17T12:59:12.112Z,24.13
2018-05-17T13:01:39.687Z,15.83
2018-05-17T13:04:07.265Z,15.50
2018-05-17T13:06:34.845Z,17.50
2018-05-17T13:09:02.421Z,21.40
2018-05-17T13:11:29.996Z,18.40
2018-05-17T13:13:57.616Z,16.33
2018-05-17T13:16:25.313Z,23.83
2018-05-17T13:18:52.909Z,18.87
2018-05-17T13:21:20.480Z,16.73
2018-05-17T13:23:48.165Z,20.80
2018-05-17T13:26:16.441Z,13.77
2018-05-17T13:28:44.917Z,16.47
2018-05-17T13:31:12.501Z,20.67
2018-05-17T13:33:40.990Z,18.90
2018-05-17T13:36:09.339Z,15.47
2018-05-17T13:38:37.707Z,14.67
2018-05-17T13:41:05.968Z,13.83
2018-05-17T13:43:34.338Z,16.73
2018-05-17T13:46:01.945Z,17.23
2018-05-17T13:48:30.321Z,19.40
2018-05-17T13:50:58.819Z,12.07
2018-05-17T13:53:27.224Z,16.83
2018-05-17T13:55:54.845Z,19.07
2018-05-17T13:58:22.417Z,21.20
2018-05-17T14:00:50.801Z,20.13
2018-05-17T14:03:18.462Z,17.37
2018-05-17T14:05:46.037Z,16.13
2018-05-17T14:08:13.606Z,16.83
2018-05-17T14:10:42.141Z,17.37
2018-05-17T14:13:09.713Z,13.17
2018-05-17T14:15:37.388Z,18.60
2018-05-17T14:18:04.901Z,23.40
2018-05-17T14:20:32.481Z,20.30
2018-05-17T14:23:00.153Z,30.53
2018-05-17T14:25:27.761Z,15.90
2018-05-17T14:27:55.343Z,14.80
2018-05-17T14:30:23.055Z,19.40
2018-05-17T14:32:50.625Z,18.13
2018-05-17T14:35:18.207Z,25.20
2018-05-17T14:37:45.787Z,14.90
2018-05-17T14:40:14.272Z,18.20
2018-05-17T14:42:42.589Z,16.83
2018-05-17T14:45:10.165Z,11.67
2018-05-17T14:47:37.738Z,13.93
2018-05-17T14:50:05.308Z,18.77
2018-05-17T14:52:32.886Z,12.83
2018-05-17T14:55:00.462Z,15.70
2018-05-17T14:57:28.033Z,14.83
2018-05-17T14:59:55.611Z,17.57
2018-05-17T15:02:23.231Z,14.67
2018-05-17T15:04:50.805Z,14.07
2018-05-17T15:07:18.381Z,13.87
2018-05-17T15:09:45.961Z,16.37
2018-05-17T15:12:13.539Z,14.73
2018-05-17T15:14:41.149Z,15.43
2018-05-17T15:17:08.724Z,13.67
2018-05-17T15:19:36.409Z,18.33
2018-05-17T15:22:04.881Z,13.23
2018-05-17T15:24:32.545Z,10.23
2018-05-17T15:27:00.106Z,16.03
2018-05-17T15:29:27.682Z,10.43
2018-05-17T15:31:55.263Z,14.27
2018-05-17T15:34:22.837Z,19.10
2018-05-17T15:36:50.449Z,10.37
2018-05-17T15:39:19.009Z,20.83
2018-05-17T15:41:46.654Z,12.57
2018-05-17T15:44:14.251Z,16.10
2018-05-17T15:46:41.823Z,20.10
2018-05-17T15:49:09.396Z,13.83
2018-05-17T15:51:37.669Z,13.93
2018-05-17T15:54:05.246Z,8.87
2018-05-17T15:56:32.824Z,16.87
2018-05-17T15:59:00.403Z,16.27
2018-05-17T16:01:27.977Z,12.07
2018-05-17T16:03:55.549Z,34.70
2018-05-17T16:06:23.121Z,16.30
2018-05-17T16:08:50.701Z,13.40
2018-05-17T16:11:18.317Z,18.73
2018-05-17T16:13:45.884Z,9.80
2018-05-17T16:16:13.499Z,14.40
2018-05-17T16:18:41.080Z,10.00
2018-05-17T16:21:08.659Z,15.93
2018-05-17T16:23:36.238Z,14.10
2018-05-17T16:26:03.809Z,14.97
2018-05-17T16:28:31.381Z,22.30
2018-05-17T16:30:58.972Z,11.00
2018-05-17T16:33:26.548Z,11.53
2018-05-17T16:35:54.122Z,15.97
2018-05-17T16:38:21.702Z,18.10
2018-05-17T16:40:49.282Z,15.47
2018-05-17T16:43:16.925Z,17.43
2018-05-17T16:45:44.501Z,20.67
2018-05-17T16:48:12.105Z,15.93
2018-05-17T16:50:39.676Z,16.53
2018-05-17T16:53:07.332Z,14.30
2018-05-17T16:55:34.900Z,18.50
2018-05-17T16:58:02.477Z,14.33
2018-05-17T17:00:30.265Z,19.70
2018-05-17T17:02:57.854Z,15.17
2018-05-17T17:05:25.495Z,12.10
2018-05-17T17:07:53.042Z,15.13
2018-05-17T17:10:20.640Z,15.43
2018-05-17T17:12:48.231Z,22.03
2018-05-17T17:15:15.865Z,11.90
2018-05-17T17:17:43.457Z,22.53
2018-05-17T17:20:11.053Z,22.20
2018-05-17T17:22:38.633Z,30.87
2018-05-17T17:25:06.309Z,16.37
2018-05-17T17:27:33.938Z,21.27
2018-05-17T17:30:01.513Z,23.70
2018-05-17T17:32:29.097Z,21.10
2018-05-17T17:34:56.686Z,24.57
2018-05-17T17:37:24.266Z,23.23
2018-05-17T17:39:52.689Z,23.30
2018-05-17T17:42:20.270Z,20.70
2018-05-17T17:44:48.321Z,23.97
2018-05-17T17:47:15.989Z,17.20
2018-05-17T17:49:43.605Z,25.43
2018-05-17T17:52:11.185Z,25.90
2018-05-17T17:54:38.805Z,19.97
2018-05-17T17:57:06.387Z,28.93
2018-05-17T17:59:33.966Z,19.33
2018-05-17T18:02:01.565Z,21.87
2018-05-17T18:04:29.225Z,22.80
2018-05-17T18:06:56.810Z,22.10
2018-05-17T18:09:24.503Z,25.53
2018-05-17T18:11:52.153Z,19.63
2018-05-17T18:14:20.645Z,18.13
2018-05-17T18:16:48.356Z,25.77
2018-05-17T18:19:15.933Z,18.23
2018-05-17T18:21:43.514Z,21.87
2018-05-17T18:24:11.875Z,22.60
2018-05-17T18:26:39.884Z,26.53
2018-05-17T18:29:07.905Z,24.67
2018-05-17T18:31:35.745Z,30.27
2018-05-17T18:34:03.625Z,24.60
2018-05-17T18:36:31.888Z,31.20
2018-05-17T18:38:59.957Z,19.57
2018-05-17T18:41:27.788Z,22.17
2018-05-17T18:43:57.110Z,19.43
2018-05-17T18:46:26.178Z,19.07
2018-05-17T18:48:54.505Z,23.40
2018-05-17T18:51:22.218Z,30.60
2018-05-17T18:53:49.793Z,26.43
2018-05-17T18:56:17.626Z,24.43
2018-05-17T18:58:45.389Z,26.60
2018-05-17T19:01:13.005Z,25.70
2018-05-17T19:03:40.617Z,32.47
2018-05-17T19:06:08.349Z,25.33
2018-05-17T19:08:37.284Z,24.07
2018-05-17T19:11:04.887Z,28.43
2018-05-17T19:13:32.464Z,23.03
2018-05-17T19:16:01.338Z,21.30
2018-05-17T19:18:29.381Z,20.27
2018-05-17T19:20:57.192Z,23.43
2018-05-17T19:23:24.921Z,29.13
2018-05-17T19:25:53.476Z,18.57
2018-05-17T19:28:21.061Z,19.23
2018-05-17T19:30:48.642Z,17.67
2018-05-17T19:33:16.225Z,18.37
2018-05-17T19:35:44.672Z,28.90
2018-05-17T19:38:13.237Z,26.87
2018-05-17T19:40:40.882Z,18.33
2018-05-17T19:43:08.513Z,19.73
2018-05-17T19:45:36.263Z,23.97
2018-05-17T19:48:03.849Z,19.60
2018-05-17T19:50:31.573Z,24.70
2018-05-17T19:52:59.600Z,17.23
2018-05-17T19:55:28.641Z,19.70
2018-05-17T19:57:56.918Z,22.50
2018-05-17T20:00:24.536Z,15.60
2018-05-17T20:02:52.405Z,24.23
2018-05-17T20:05:20.306Z,23.53
2018-05-17T20:07:47.941Z,26.20
2018-05-17T20:10:15.518Z,22.50
2018-05-17T20:12:43.094Z,27.47
2018-05-17T20:15:10.671Z,19.03
2018-05-17T20:17:38.292Z,19.37
2018-05-17T20:20:06.674Z,34.33
2018-05-17T20:22:35.157Z,18.07
2018-05-17T20:25:02.737Z,15.67
2018-05-17T20:27:30.365Z,21.90
2018-05-17T20:29:57.947Z,25.17
2018-05-17T20:32:25.526Z,18.60
2018-05-17T20:34:53.796Z,22.60
2018-05-17T20:37:22.279Z,29.10
2018-05-17T20:39:49.887Z,19.73
2018-05-17T20:42:17.523Z,25.03
2018-05-17T20:44:45.079Z,28.63
2018-05-17T20:47:12.796Z,27.63
2018-05-17T20:49:41.393Z,18.23
2018-05-17T20:52:09.774Z,29.73
2018-05-17T20:54:37.352Z,28.87
2018-05-17T20:57:04.994Z,25.07
2018-05-17T20:59:32.573Z,24.53
2018-05-17T21:02:00.154Z,30.23
2018-05-17T21:04:27.739Z,31.27
2018-05-17T21:06:55.334Z,20.70
2018-05-17T21:09:22.914Z,15.50
2018-05-17T21:11:50.578Z,18.50
2018-05-17T21:14:18.153Z,22.20
2018-05-17T21:16:45.844Z,23.53
2018-05-17T21:19:13.466Z,22.00
2018-05-17T21:21:41.072Z,26.70
2018-05-17T21:24:08.654Z,28.93
2018-05-17T21:26:36.345Z,19.73
2018-05-17T21:29:03.959Z,19.57
2018-05-17T21:31:31.658Z,23.93
2018-05-17T21:33:59.265Z,33.80
2018-05-17T21:36:26.850Z,20.80
2018-05-17T21:38:54.430Z,23.17
2018-05-17T21:41:22.160Z,17.37
2018-05-17T21:43:49.747Z,24.83
2018-05-17T21:46:18.138Z,27.97
2018-05-17T21:48:45.722Z,24.27
2018-05-17T21:51:13.382Z,20.97
2018-05-17T21:53:40.960Z,26.53
2018-05-17T21:56:08.573Z,23.47
2018-05-17T21:58:37.022Z,25.93
2018-05-17T22:01:05.379Z,26.13
2018-05-17T22:03:32.993Z,23.87
2018-05-17T22:06:00.569Z,26.97
2018-05-17T22:08:28.188Z,25.03
2018-05-17T22:10:55.765Z,20.70
2018-05-17T22:13:23.338Z,25.03
2018-05-17T22:15:50.918Z,27.57
2018-05-17T22:18:18.589Z,24.60
2018-05-17T22:20:46.168Z,22.43
2018-05-17T22:23:13.869Z,21.70
2018-05-17T22:25:41.505Z,25.83
2018-05-17T22:28:09.120Z,26.90
2018-05-17T22:30:36.702Z,26.47
2018-05-17T22:33:04.329Z,21.63
2018-05-17T22:35:32.743Z,20.13
2018-05-17T22:38:00.321Z,26.73
2018-05-17T22:40:27.897Z,24.97
2018-05-17T22:42:55.477Z,24.03
2018-05-17T22:45:23.061Z,32.17
2018-05-17T22:47:50.637Z,23.23
2018-05-17T22:50:18.241Z,26.80
2018-05-17T22:52:45.818Z,27.83
2018-05-17T22:55:13.395Z,34.17
2018-05-17T22:57:52.869Z,28.20
2018-05-17T23:00:20.449Z,25.10
2018-05-17T23:02:48.933Z,26.50
2018-05-17T23:05:17.202Z,30.13
2018-05-17T23:07:45.685Z,35.00
2018-05-17T23:10:13.265Z,27.57
2018-05-17T23:12:41.758Z,33.33
2018-05-17T23:15:10.149Z,34.73
2018-05-17T23:17:37.762Z,28.27
2018-05-17T23:20:05.341Z,24.53
2018-05-17T23:22:37.338Z,37.37
2018-05-17T23:25:04.965Z,31.37
2018-05-17T23:27:33.305Z,30.23
2018-05-17T23:30:01.574Z,24.63
2018-05-17T23:32:29.917Z,25.27
2018-05-17T23:34:58.316Z,26.33
2018-05-17T23:37:26.577Z,30.00
2018-05-17T23:39:54.884Z,36.90
2018-05-17T23:42:23.361Z,27.83
2018-05-17T23:44:51.845Z,28.80
2018-05-17T23:47:19.429Z,28.00
2018-05-17T23:49:47.009Z,32.07
2018-05-17T23:52:14.593Z,23.00
2018-05-17T23:54:42.945Z,22.70
2018-05-17T23:57:11.333Z,29.00
2018-05-17T23:59:39.733Z,33.63
